sensor_id;sensor_type;location;lat;lon;timestamp;pressure;altitude;pressure_sealevel;temperature;humidity
39949;BME280;29070;48.102;-1.652;2023-12-22T00:01:03;101920.16;;;11.63;79.19
39949;BME280;29070;48.102;-1.652;2023-12-22T00:06:04;101929.03;;;11.62;79.32
39949;BME280;29070;48.102;-1.652;2023-12-22T00:11:04;101920.66;;;11.58;79.35
39949;BME280;29070;48.102;-1.652;2023-12-22T00:16:04;101921.19;;;11.54;79.41
39949;BME280;29070;48.102;-1.652;2023-12-22T00:21:09;101908.22;;;11.52;79.43
39949;BME280;29070;48.102;-1.652;2023-12-22T00:26:10;101935.00;;;11.48;79.35
39949;BME280;29070;48.102;-1.652;2023-12-22T00:31:11;101931.56;;;11.47;79.37
39949;BME280;29070;48.102;-1.652;2023-12-22T00:36:14;101922.38;;;11.43;79.39
39949;BME280;29070;48.102;-1.652;2023-12-22T00:41:15;101923.53;;;11.40;79.45
39949;BME280;29070;48.102;-1.652;2023-12-22T00:46:15;101909.75;;;11.38;79.45
39949;BME280;29070;48.102;-1.652;2023-12-22T00:51:15;101884.63;;;11.36;79.53
39949;BME280;29070;48.102;-1.652;2023-12-22T00:56:16;101895.47;;;11.33;79.50
39949;BME280;29070;48.102;-1.652;2023-12-22T01:01:17;101893.00;;;11.31;79.72
39949;BME280;29070;48.102;-1.652;2023-12-22T01:06:17;101894.31;;;11.35;79.80
39949;BME280;29070;48.102;-1.652;2023-12-22T01:11:17;101907.13;;;11.38;79.92
39949;BME280;29070;48.102;-1.652;2023-12-22T01:16:18;101910.69;;;11.45;79.92
39949;BME280;29070;48.102;-1.652;2023-12-22T01:21:21;101900.81;;;11.48;80.00
39949;BME280;29070;48.102;-1.652;2023-12-22T01:26:21;101906.41;;;11.53;79.88
39949;BME280;29070;48.102;-1.652;2023-12-22T01:31:22;101899.78;;;11.57;79.92
39949;BME280;29070;48.102;-1.652;2023-12-22T01:36:22;101904.88;;;11.58;79.95
39949;BME280;29070;48.102;-1.652;2023-12-22T01:41:22;101912.94;;;11.57;79.87
39949;BME280;29070;48.102;-1.652;2023-12-22T01:46:23;101921.34;;;11.52;80.14
39949;BME280;29070;48.102;-1.652;2023-12-22T01:51:23;101918.25;;;11.49;80.15
39949;BME280;29070;48.102;-1.652;2023-12-22T01:56:24;101909.72;;;11.47;80.14
39949;BME280;29070;48.102;-1.652;2023-12-22T02:01:25;101909.03;;;11.44;80.20
39949;BME280;29070;48.102;-1.652;2023-12-22T02:06:30;101926.81;;;11.42;80.32
39949;BME280;29070;48.102;-1.652;2023-12-22T02:11:30;101938.16;;;11.43;80.44
39949;BME280;29070;48.102;-1.652;2023-12-22T02:16:42;101939.31;;;11.40;80.58
39949;BME280;29070;48.102;-1.652;2023-12-22T02:22:02;101934.75;;;11.34;80.81
39949;BME280;29070;48.102;-1.652;2023-12-22T02:27:05;101942.31;;;11.29;80.66
39949;BME280;29070;48.102;-1.652;2023-12-22T02:32:12;101956.44;;;11.28;80.88
39949;BME280;29070;48.102;-1.652;2023-12-22T02:37:15;101947.56;;;11.29;80.97
39949;BME280;29070;48.102;-1.652;2023-12-22T02:42:17;101933.41;;;11.30;81.03
39949;BME280;29070;48.102;-1.652;2023-12-22T02:47:17;101947.25;;;11.32;81.14
39949;BME280;29070;48.102;-1.652;2023-12-22T02:52:18;101945.59;;;11.31;81.42
39949;BME280;29070;48.102;-1.652;2023-12-22T02:57:18;101937.22;;;11.36;81.15
39949;BME280;29070;48.102;-1.652;2023-12-22T03:02:18;101936.84;;;11.39;81.31
39949;BME280;29070;48.102;-1.652;2023-12-22T03:07:19;101939.63;;;11.37;81.39
39949;BME280;29070;48.102;-1.652;2023-12-22T03:12:19;101941.28;;;11.38;81.29
39949;BME280;29070;48.102;-1.652;2023-12-22T03:17:19;101932.75;;;11.36;81.37
39949;BME280;29070;48.102;-1.652;2023-12-22T03:22:20;101931.75;;;11.37;81.48
39949;BME280;29070;48.102;-1.652;2023-12-22T03:27:20;101909.75;;;11.30;81.48
39949;BME280;29070;48.102;-1.652;2023-12-22T03:32:20;101915.69;;;11.32;81.48
39949;BME280;29070;48.102;-1.652;2023-12-22T03:37:21;101925.53;;;11.30;81.64
39949;BME280;29070;48.102;-1.652;2023-12-22T03:42:21;101921.75;;;11.33;81.68
39949;BME280;29070;48.102;-1.652;2023-12-22T03:47:21;101914.84;;;11.32;81.71
39949;BME280;29070;48.102;-1.652;2023-12-22T03:52:22;101919.63;;;11.28;81.82
39949;BME280;29070;48.102;-1.652;2023-12-22T03:57:22;101914.53;;;11.26;81.86
39949;BME280;29070;48.102;-1.652;2023-12-22T04:02:23;101907.66;;;11.25;81.91
39949;BME280;29070;48.102;-1.652;2023-12-22T04:07:23;101910.47;;;11.24;81.96
39949;BME280;29070;48.102;-1.652;2023-12-22T04:12:23;101907.03;;;11.23;82.02
39949;BME280;29070;48.102;-1.652;2023-12-22T04:17:24;101903.75;;;11.21;82.15
39949;BME280;29070;48.102;-1.652;2023-12-22T04:22:24;101903.91;;;11.20;82.07
39949;BME280;29070;48.102;-1.652;2023-12-22T04:27:24;101911.78;;;11.20;82.24
39949;BME280;29070;48.102;-1.652;2023-12-22T04:32:25;101909.00;;;11.21;82.41
39949;BME280;29070;48.102;-1.652;2023-12-22T04:37:25;101914.09;;;11.15;83.00
39949;BME280;29070;48.102;-1.652;2023-12-22T04:42:26;101913.78;;;11.18;82.82
39949;BME280;29070;48.102;-1.652;2023-12-22T04:47:26;101910.63;;;11.22;82.97
39949;BME280;29070;48.102;-1.652;2023-12-22T04:52:26;101900.81;;;11.16;83.14
39949;BME280;29070;48.102;-1.652;2023-12-22T04:57:27;101893.25;;;11.13;83.10
39949;BME280;29070;48.102;-1.652;2023-12-22T05:02:27;101885.84;;;11.17;83.17
39949;BME280;29070;48.102;-1.652;2023-12-22T05:07:29;101896.34;;;11.17;83.26
39949;BME280;29070;48.102;-1.652;2023-12-22T05:12:30;101901.28;;;11.20;83.16
39949;BME280;29070;48.102;-1.652;2023-12-22T05:17:30;101902.91;;;11.21;83.24
39949;BME280;29070;48.102;-1.652;2023-12-22T05:22:31;101899.28;;;11.22;83.24
39949;BME280;29070;48.102;-1.652;2023-12-22T05:27:31;101902.41;;;11.25;83.56
39949;BME280;29070;48.102;-1.652;2023-12-22T05:32:32;101896.66;;;11.22;83.38
39949;BME280;29070;48.102;-1.652;2023-12-22T05:37:32;101901.28;;;11.20;83.40
39949;BME280;29070;48.102;-1.652;2023-12-22T05:42:32;101907.69;;;11.17;83.37
39949;BME280;29070;48.102;-1.652;2023-12-22T05:47:33;101921.66;;;11.18;83.17
39949;BME280;29070;48.102;-1.652;2023-12-22T05:52:33;101911.78;;;11.20;83.72
39949;BME280;29070;48.102;-1.652;2023-12-22T05:57:33;101909.81;;;11.22;83.59
39949;BME280;29070;48.102;-1.652;2023-12-22T06:02:34;101903.53;;;11.23;83.62
39949;BME280;29070;48.102;-1.652;2023-12-22T06:07:34;101905.03;;;11.25;83.71
39949;BME280;29070;48.102;-1.652;2023-12-22T06:12:35;101897.31;;;11.24;83.67
39949;BME280;29070;48.102;-1.652;2023-12-22T06:17:36;101907.81;;;11.24;83.81
39949;BME280;29070;48.102;-1.652;2023-12-22T06:22:36;101899.28;;;11.22;83.87
39949;BME280;29070;48.102;-1.652;2023-12-22T06:27:36;101901.94;;;11.22;84.01
39949;BME280;29070;48.102;-1.652;2023-12-22T06:32:39;101906.88;;;11.17;84.10
39949;BME280;29070;48.102;-1.652;2023-12-22T06:37:41;101908.84;;;11.15;84.02
39949;BME280;29070;48.102;-1.652;2023-12-22T06:42:42;101915.09;;;11.14;84.00
39949;BME280;29070;48.102;-1.652;2023-12-22T06:47:42;101922.16;;;11.13;83.99
39949;BME280;29070;48.102;-1.652;2023-12-22T06:52:43;101930.03;;;11.13;84.01
39949;BME280;29070;48.102;-1.652;2023-12-22T06:57:43;101927.25;;;11.15;84.00
39949;BME280;29070;48.102;-1.652;2023-12-22T07:02:43;101929.88;;;11.15;83.93
39949;BME280;29070;48.102;-1.652;2023-12-22T07:07:44;101937.09;;;11.13;84.04
39949;BME280;29070;48.102;-1.652;2023-12-22T07:12:44;101920.88;;;11.09;84.05
39949;BME280;29070;48.102;-1.652;2023-12-22T07:17:45;101943.66;;;11.09;84.11
39949;BME280;29070;48.102;-1.652;2023-12-22T07:22:45;101939.59;;;11.06;84.29
39949;BME280;29070;48.102;-1.652;2023-12-22T07:27:46;101937.13;;;11.04;84.23
39949;BME280;29070;48.102;-1.652;2023-12-22T07:32:46;101933.69;;;11.04;84.14
39949;BME280;29070;48.102;-1.652;2023-12-22T07:37:48;101934.50;;;11.04;84.33
39949;BME280;29070;48.102;-1.652;2023-12-22T07:42:49;101945.81;;;11.05;84.41
39949;BME280;29070;48.102;-1.652;2023-12-22T07:47:50;101950.56;;;11.01;84.40
39949;BME280;29070;48.102;-1.652;2023-12-22T07:52:51;101964.06;;;10.98;84.46
39949;BME280;29070;48.102;-1.652;2023-12-22T07:57:51;101955.84;;;11.01;84.38
39949;BME280;29070;48.102;-1.652;2023-12-22T08:02:51;101957.97;;;10.98;84.37
39949;BME280;29070;48.102;-1.652;2023-12-22T08:07:52;101966.69;;;10.98;84.31
39949;BME280;29070;48.102;-1.652;2023-12-22T08:12:53;101978.00;;;10.99;84.41
39949;BME280;29070;48.102;-1.652;2023-12-22T08:17:53;101979.47;;;11.01;84.34
39949;BME280;29070;48.102;-1.652;2023-12-22T08:22:54;101995.25;;;11.01;84.41
39949;BME280;29070;48.102;-1.652;2023-12-22T08:27:54;101987.84;;;11.05;84.36
39949;BME280;29070;48.102;-1.652;2023-12-22T08:32:54;102008.53;;;11.00;84.30
39949;BME280;29070;48.102;-1.652;2023-12-22T08:37:55;102010.50;;;10.98;84.41
39949;BME280;29070;48.102;-1.652;2023-12-22T08:42:55;102008.53;;;11.00;84.31
39949;BME280;29070;48.102;-1.652;2023-12-22T08:47:59;102003.63;;;11.05;84.28
39949;BME280;29070;48.102;-1.652;2023-12-22T08:53:00;102014.13;;;11.05;84.23
39949;BME280;29070;48.102;-1.652;2023-12-22T08:58:00;102015.28;;;11.02;84.19
39949;BME280;29070;48.102;-1.652;2023-12-22T09:03:01;102017.25;;;11.09;84.16
39949;BME280;29070;48.102;-1.652;2023-12-22T09:08:02;102028.72;;;11.16;84.18
39949;BME280;29070;48.102;-1.652;2023-12-22T09:13:03;102041.38;;;11.20;84.09
39949;BME280;29070;48.102;-1.652;2023-12-22T09:18:03;102034.16;;;11.22;83.88
39949;BME280;29070;48.102;-1.652;2023-12-22T09:23:04;102037.59;;;11.23;83.74
39949;BME280;29070;48.102;-1.652;2023-12-22T09:28:08;102033.66;;;11.27;83.65
39949;BME280;29070;48.102;-1.652;2023-12-22T09:33:09;102032.00;;;11.26;83.51
39949;BME280;29070;48.102;-1.652;2023-12-22T09:38:10;102028.88;;;11.31;83.45
39949;BME280;29070;48.102;-1.652;2023-12-22T09:43:14;102037.91;;;11.36;83.34
39949;BME280;29070;48.102;-1.652;2023-12-22T09:48:17;102028.38;;;11.43;83.22
39949;BME280;29070;48.102;-1.652;2023-12-22T09:53:19;102040.00;;;11.49;83.05
39949;BME280;29070;48.102;-1.652;2023-12-22T09:58:20;102050.03;;;11.54;82.97
39949;BME280;29070;48.102;-1.652;2023-12-22T10:03:24;102051.66;;;11.55;82.67
39949;BME280;29070;48.102;-1.652;2023-12-22T10:08:26;102054.94;;;11.57;82.40
39949;BME280;29070;48.102;-1.652;2023-12-22T10:13:27;102061.00;;;11.66;82.46
39949;BME280;29070;48.102;-1.652;2023-12-22T10:18:28;102047.03;;;11.73;82.30
39949;BME280;29070;48.102;-1.652;2023-12-22T10:23:29;102056.38;;;11.76;81.85
39949;BME280;29070;48.102;-1.652;2023-12-22T10:28:29;102053.75;;;11.76;81.71
39949;BME280;29070;48.102;-1.652;2023-12-22T10:33:29;102059.97;;;11.75;81.52
39949;BME280;29070;48.102;-1.652;2023-12-22T10:38:33;102068.06;;;11.73;81.36
39949;BME280;29070;48.102;-1.652;2023-12-22T10:43:40;102073.31;;;11.73;80.87
39949;BME280;29070;48.102;-1.652;2023-12-22T10:48:40;102070.81;;;11.80;80.97
39949;BME280;29070;48.102;-1.652;2023-12-22T10:53:42;102065.22;;;11.83;80.74
39949;BME280;29070;48.102;-1.652;2023-12-22T10:58:42;102069.31;;;11.86;80.69
39949;BME280;29070;48.102;-1.652;2023-12-22T11:03:44;102065.72;;;11.87;80.50
39949;BME280;29070;48.102;-1.652;2023-12-22T11:08:50;102061.44;;;11.94;80.50
39949;BME280;29070;48.102;-1.652;2023-12-22T11:13:53;102051.72;;;11.94;80.38
39949;BME280;29070;48.102;-1.652;2023-12-22T11:18:56;102060.09;;;11.90;80.08
39949;BME280;29070;48.102;-1.652;2023-12-22T11:23:57;102043.00;;;11.94;79.96
39949;BME280;29070;48.102;-1.652;2023-12-22T11:28:59;102034.91;;;12.04;79.66
39949;BME280;29070;48.102;-1.652;2023-12-22T11:33:59;102038.53;;;12.02;79.49
39949;BME280;29070;48.102;-1.652;2023-12-22T11:39:00;102042.09;;;12.18;79.38
39949;BME280;29070;48.102;-1.652;2023-12-22T11:44:03;102032.97;;;12.29;79.28
39949;BME280;29070;48.102;-1.652;2023-12-22T11:49:04;102037.06;;;12.31;79.14
39949;BME280;29070;48.102;-1.652;2023-12-22T11:59:44;102028.41;;;12.23;78.85
39949;BME280;29070;48.102;-1.652;2023-12-22T12:04:47;102027.72;;;12.29;78.61
39949;BME280;29070;48.102;-1.652;2023-12-22T12:09:48;102020.47;;;12.31;78.43
39949;BME280;29070;48.102;-1.652;2023-12-22T12:14:51;102023.88;;;12.39;78.37
39949;BME280;29070;48.102;-1.652;2023-12-22T12:19:57;102012.16;;;12.42;78.43
39949;BME280;29070;48.102;-1.652;2023-12-22T12:24:58;102039.41;;;12.26;78.05
39949;BME280;29070;48.102;-1.652;2023-12-22T12:29:58;102050.09;;;12.25;78.08
39949;BME280;29070;48.102;-1.652;2023-12-22T12:34:59;102059.38;;;12.12;77.82
39949;BME280;29070;48.102;-1.652;2023-12-22T12:40:01;102028.31;;;12.08;77.87
39949;BME280;29070;48.102;-1.652;2023-12-22T12:45:04;102040.91;;;12.20;77.84
39949;BME280;29070;48.102;-1.652;2023-12-22T12:50:05;102033.31;;;12.26;77.90
39949;BME280;29070;48.102;-1.652;2023-12-22T12:55:06;102036.94;;;12.25;77.50
39949;BME280;29070;48.102;-1.652;2023-12-22T13:00:07;102033.66;;;12.23;77.86
39949;BME280;29070;48.102;-1.652;2023-12-22T13:05:07;102026.41;;;12.25;77.82
39949;BME280;29070;48.102;-1.652;2023-12-22T13:10:20;102022.78;;;12.26;77.41
39949;BME280;29070;48.102;-1.652;2023-12-22T13:15:20;102021.13;;;12.25;77.70
39949;BME280;29070;48.102;-1.652;2023-12-22T13:20:22;102015.88;;;12.25;77.62
39949;BME280;29070;48.102;-1.652;2023-12-22T13:25:23;102013.25;;;12.25;77.55
39949;BME280;29070;48.102;-1.652;2023-12-22T13:30:37;102009.00;;;12.24;77.33
39949;BME280;29070;48.102;-1.652;2023-12-22T13:35:41;102009.31;;;12.20;77.37
39949;BME280;29070;48.102;-1.652;2023-12-22T13:40:45;102005.34;;;12.25;77.51
39949;BME280;29070;48.102;-1.652;2023-12-22T13:45:49;102012.09;;;12.27;77.38
39949;BME280;29070;48.102;-1.652;2023-12-22T13:50:57;102017.53;;;12.26;77.14
39949;BME280;29070;48.102;-1.652;2023-12-22T13:55:59;102014.41;;;12.22;76.92
39949;BME280;29070;48.102;-1.652;2023-12-22T14:01:12;102007.19;;;12.16;76.53
39949;BME280;29070;48.102;-1.652;2023-12-22T14:06:14;102011.66;;;12.15;76.68
39949;BME280;29070;48.102;-1.652;2023-12-22T14:11:14;102016.44;;;12.12;76.47
39949;BME280;29070;48.102;-1.652;2023-12-22T14:16:15;102016.63;;;12.10;76.44
39949;BME280;29070;48.102;-1.652;2023-12-22T14:21:16;102012.69;;;12.06;76.11
39949;BME280;29070;48.102;-1.652;2023-12-22T14:26:16;102019.09;;;12.04;76.37
39949;BME280;29070;48.102;-1.652;2023-12-22T14:31:17;102009.41;;;12.04;76.44
39949;BME280;29070;48.102;-1.652;2023-12-22T14:36:17;102022.28;;;11.99;76.36
39949;BME280;29070;48.102;-1.652;2023-12-22T14:41:18;102021.97;;;11.94;76.21
39949;BME280;29070;48.102;-1.652;2023-12-22T14:46:18;102008.97;;;11.92;76.18
39949;BME280;29070;48.102;-1.652;2023-12-22T14:51:18;102010.63;;;11.85;76.23
39949;BME280;29070;48.102;-1.652;2023-12-22T14:56:19;102020.00;;;11.88;76.52
39949;BME280;29070;48.102;-1.652;2023-12-22T15:01:19;101999.97;;;11.78;76.30
39949;BME280;29070;48.102;-1.652;2023-12-22T15:06:19;102006.88;;;11.71;76.34
39949;BME280;29070;48.102;-1.652;2023-12-22T15:11:20;102010.69;;;11.69;76.47
39949;BME280;29070;48.102;-1.652;2023-12-22T15:16:20;102012.06;;;11.56;76.10
39949;BME280;29070;48.102;-1.652;2023-12-22T15:21:21;102008.63;;;11.48;76.53
39949;BME280;29070;48.102;-1.652;2023-12-22T15:26:25;102004.88;;;11.42;76.62
39949;BME280;29070;48.102;-1.652;2023-12-22T15:31:26;102032.31;;;11.39;76.68
39949;BME280;29070;48.102;-1.652;2023-12-22T15:36:26;102026.25;;;11.31;76.74
39949;BME280;29070;48.102;-1.652;2023-12-22T15:41:31;102023.47;;;11.16;77.03
39949;BME280;29070;48.102;-1.652;2023-12-22T15:46:31;102019.88;;;11.09;77.17
39949;BME280;29070;48.102;-1.652;2023-12-22T15:51:31;102026.78;;;11.10;77.20
39949;BME280;29070;48.102;-1.652;2023-12-22T15:56:32;102033.00;;;11.09;77.48
39949;BME280;29070;48.102;-1.652;2023-12-22T16:01:32;102022.00;;;11.05;77.72
39949;BME280;29070;48.102;-1.652;2023-12-22T16:06:32;102015.28;;;11.02;77.67
39949;BME280;29070;48.102;-1.652;2023-12-22T16:11:32;102020.38;;;11.04;77.65
39949;BME280;29070;48.102;-1.652;2023-12-22T16:16:33;102018.06;;;11.01;77.76
39949;BME280;29070;48.102;-1.652;2023-12-22T16:21:39;102022.53;;;11.00;77.85
39949;BME280;29070;48.102;-1.652;2023-12-22T16:26:40;102020.88;;;10.99;77.57
39949;BME280;29070;48.102;-1.652;2023-12-22T16:31:41;102017.44;;;10.99;77.62
39949;BME280;29070;48.102;-1.652;2023-12-22T16:36:44;102028.91;;;10.98;77.71
39949;BME280;29070;48.102;-1.652;2023-12-22T16:41:45;102026.13;;;10.99;77.79
39949;BME280;29070;48.102;-1.652;2023-12-22T16:46:46;102019.41;;;10.97;77.62
39949;BME280;29070;48.102;-1.652;2023-12-22T16:51:46;102016.28;;;10.93;77.56
39949;BME280;29070;48.102;-1.652;2023-12-22T16:56:47;102012.31;;;10.89;77.59
39949;BME280;29070;48.102;-1.652;2023-12-22T17:01:48;102010.88;;;10.86;77.68
39949;BME280;29070;48.102;-1.652;2023-12-22T17:06:53;102015.63;;;10.83;77.60
39949;BME280;29070;48.102;-1.652;2023-12-22T17:11:53;102014.66;;;10.84;77.72
39949;BME280;29070;48.102;-1.652;2023-12-22T17:16:53;102002.66;;;10.81;77.69
39949;BME280;29070;48.102;-1.652;2023-12-22T17:21:54;102006.94;;;10.82;77.75
39949;BME280;29070;48.102;-1.652;2023-12-22T17:26:54;102019.22;;;10.82;77.81
39949;BME280;29070;48.102;-1.652;2023-12-22T17:31:55;102018.41;;;10.81;77.99
39949;BME280;29070;48.102;-1.652;2023-12-22T17:36:56;102024.47;;;10.82;77.97
39949;BME280;29070;48.102;-1.652;2023-12-22T17:41:56;102034.84;;;10.75;78.19
39949;BME280;29070;48.102;-1.652;2023-12-22T17:46:57;102045.34;;;10.75;78.21
39949;BME280;29070;48.102;-1.652;2023-12-22T17:52:02;102048.13;;;10.74;78.32
39949;BME280;29070;48.102;-1.652;2023-12-22T17:57:05;102055.00;;;10.75;78.28
39949;BME280;29070;48.102;-1.652;2023-12-22T18:02:05;102054.50;;;10.71;78.34
39949;BME280;29070;48.102;-1.652;2023-12-22T18:07:06;102050.09;;;10.72;78.26
39949;BME280;29070;48.102;-1.652;2023-12-22T18:12:06;102045.81;;;10.71;78.30
39949;BME280;29070;48.102;-1.652;2023-12-22T18:17:08;102043.19;;;10.71;78.29
39949;BME280;29070;48.102;-1.652;2023-12-22T18:22:08;102040.56;;;10.71;78.42
39949;BME280;29070;48.102;-1.652;2023-12-22T18:27:09;102045.81;;;10.71;78.42
39949;BME280;29070;48.102;-1.652;2023-12-22T18:32:09;102045.47;;;10.65;78.35
39949;BME280;29070;48.102;-1.652;2023-12-22T18:37:09;102045.34;;;10.59;78.26
39949;BME280;29070;48.102;-1.652;2023-12-22T18:42:10;102042.38;;;10.54;78.38
39949;BME280;29070;48.102;-1.652;2023-12-22T18:47:10;102058.59;;;10.49;78.42
39949;BME280;29070;48.102;-1.652;2023-12-22T18:52:10;102070.06;;;10.48;78.46
39949;BME280;29070;48.102;-1.652;2023-12-22T18:57:11;102079.25;;;10.44;78.52
39949;BME280;29070;48.102;-1.652;2023-12-22T19:02:11;102087.13;;;10.36;78.54
39949;BME280;29070;48.102;-1.652;2023-12-22T19:07:11;102090.19;;;10.31;78.64
39949;BME280;29070;48.102;-1.652;2023-12-22T19:12:12;102103.44;;;10.29;78.69
39949;BME280;29070;48.102;-1.652;2023-12-22T19:17:12;102108.41;;;10.33;78.69
39949;BME280;29070;48.102;-1.652;2023-12-22T19:22:12;102113.94;;;10.29;78.82
39949;BME280;29070;48.102;-1.652;2023-12-22T19:27:13;102117.38;;;10.30;78.81
39949;BME280;29070;48.102;-1.652;2023-12-22T19:32:13;102134.28;;;10.27;78.88
39949;BME280;29070;48.102;-1.652;2023-12-22T19:37:13;102127.06;;;10.29;78.97
39949;BME280;29070;48.102;-1.652;2023-12-22T19:42:17;102131.66;;;10.27;78.86
39949;BME280;29070;48.102;-1.652;2023-12-22T19:47:18;102137.56;;;10.29;78.92
39949;BME280;29070;48.102;-1.652;2023-12-22T19:52:18;102132.19;;;10.31;79.05
39949;BME280;29070;48.102;-1.652;2023-12-22T19:57:19;102133.84;;;10.32;78.83
39949;BME280;29070;48.102;-1.652;2023-12-22T20:02:19;102147.09;;;10.30;78.96
39949;BME280;29070;48.102;-1.652;2023-12-22T20:07:20;102153.03;;;10.33;79.16
39949;BME280;29070;48.102;-1.652;2023-12-22T20:12:20;102150.41;;;10.33;79.25
39949;BME280;29070;48.102;-1.652;2023-12-22T20:17:21;102152.72;;;10.36;79.07
39949;BME280;29070;48.102;-1.652;2023-12-22T20:22:22;102157.28;;;10.34;79.01
39949;BME280;29070;48.102;-1.652;2023-12-22T20:27:22;102143.50;;;10.32;79.15
39949;BME280;29070;48.102;-1.652;2023-12-22T20:32:22;102147.94;;;10.31;78.90
39949;BME280;29070;48.102;-1.652;2023-12-22T20:37:22;102154.63;;;10.25;79.19
39949;BME280;29070;48.102;-1.652;2023-12-22T20:42:23;102164.97;;;10.27;79.27
39949;BME280;29070;48.102;-1.652;2023-12-22T20:47:23;102175.00;;;10.32;79.28
39949;BME280;29070;48.102;-1.652;2023-12-22T20:52:24;102180.25;;;10.32;79.39
39949;BME280;29070;48.102;-1.652;2023-12-22T20:57:24;102184.53;;;10.33;79.51
39949;BME280;29070;48.102;-1.652;2023-12-22T21:02:24;102182.41;;;10.36;79.41
39949;BME280;29070;48.102;-1.652;2023-12-22T21:07:25;102182.09;;;10.39;79.44
39949;BME280;29070;48.102;-1.652;2023-12-22T21:12:25;102174.03;;;10.41;79.48
39949;BME280;29070;48.102;-1.652;2023-12-22T21:17:26;102184.03;;;10.37;79.27
39949;BME280;29070;48.102;-1.652;2023-12-22T21:22:26;102179.78;;;10.36;79.23
39949;BME280;29070;48.102;-1.652;2023-12-22T21:27:26;102178.59;;;10.30;79.25
39949;BME280;29070;48.102;-1.652;2023-12-22T21:32:27;102175.00;;;10.32;79.43
39949;BME280;29070;48.102;-1.652;2023-12-22T21:37:27;102178.59;;;10.30;79.40
39949;BME280;29070;48.102;-1.652;2023-12-22T21:42:28;102167.25;;;10.30;79.28
39949;BME280;29070;48.102;-1.652;2023-12-22T21:47:29;102187.44;;;10.29;79.41
39949;BME280;29070;48.102;-1.652;2023-12-22T21:52:29;102196.00;;;10.32;79.48
39949;BME280;29070;48.102;-1.652;2023-12-22T21:57:29;102189.94;;;10.31;79.44
39949;BME280;29070;48.102;-1.652;2023-12-22T22:02:30;102176.94;;;10.29;79.62
39949;BME280;29070;48.102;-1.652;2023-12-22T22:07:30;102166.72;;;10.26;79.54
39949;BME280;29070;48.102;-1.652;2023-12-22T22:12:30;102167.72;;;10.25;79.57
39949;BME280;29070;48.102;-1.652;2023-12-22T22:17:31;102170.34;;;10.25;79.57
39949;BME280;29070;48.102;-1.652;2023-12-22T22:22:31;102180.84;;;10.25;79.63
39949;BME280;29070;48.102;-1.652;2023-12-22T22:27:31;102173.94;;;10.24;79.71
39949;BME280;29070;48.102;-1.652;2023-12-22T22:32:32;102175.59;;;10.25;79.68
39949;BME280;29070;48.102;-1.652;2023-12-22T22:37:32;102191.34;;;10.25;79.71
39949;BME280;29070;48.102;-1.652;2023-12-22T22:42:33;102191.06;;;10.28;79.74
39949;BME280;29070;48.102;-1.652;2023-12-22T22:47:33;102188.44;;;10.28;79.99
39949;BME280;29070;48.102;-1.652;2023-12-22T22:52:34;102190.19;;;10.28;79.69
39949;BME280;29070;48.102;-1.652;2023-12-22T22:57:34;102176.41;;;10.26;79.63
39949;BME280;29070;48.102;-1.652;2023-12-22T23:02:34;102169.34;;;10.26;79.76
39949;BME280;29070;48.102;-1.652;2023-12-22T23:07:35;102173.66;;;10.27;79.84
39949;BME280;29070;48.102;-1.652;2023-12-22T23:12:35;102175.59;;;10.25;79.62
39949;BME280;29070;48.102;-1.652;2023-12-22T23:17:35;102184.44;;;10.24;80.15
39949;BME280;29070;48.102;-1.652;2023-12-22T23:22:36;102182.81;;;10.23;79.63
39949;BME280;29070;48.102;-1.652;2023-12-22T23:27:36;102170.66;;;10.22;79.74
39949;BME280;29070;48.102;-1.652;2023-12-22T23:32:36;102176.91;;;10.21;79.80
39949;BME280;29070;48.102;-1.652;2023-12-22T23:37:37;102181.47;;;10.19;79.57
39949;BME280;29070;48.102;-1.652;2023-12-22T23:42:37;102172.63;;;10.20;79.57
39949;BME280;29070;48.102;-1.652;2023-12-22T23:47:37;102181.31;;;10.21;79.88
39949;BME280;29070;48.102;-1.652;2023-12-22T23:52:38;102168.03;;;10.22;79.65
39949;BME280;29070;48.102;-1.652;2023-12-22T23:57:38;102165.72;;;10.19;79.73
